createdAt,value
2022-11-24T00:00:35.793Z,7.16
2022-11-24T00:03:02.372Z,7.27
2022-11-24T00:05:28.816Z,7.29
2022-11-24T00:07:55.217Z,7.29
2022-11-24T00:10:21.695Z,7.30
2022-11-24T00:12:48.069Z,7.28
2022-11-24T00:15:14.509Z,7.30
2022-11-24T00:17:40.961Z,7.27
2022-11-24T00:20:07.995Z,7.31
2022-11-24T00:22:34.384Z,7.27
2022-11-24T00:25:00.790Z,7.30
2022-11-24T00:27:27.196Z,7.30
2022-11-24T00:29:53.593Z,7.24
2022-11-24T00:32:20.009Z,7.29
2022-11-24T00:34:46.978Z,7.25
2022-11-24T00:37:13.397Z,7.28
2022-11-24T00:39:39.836Z,7.31
2022-11-24T00:42:06.246Z,7.25
2022-11-24T00:44:32.773Z,7.25
2022-11-24T00:46:59.416Z,7.28
2022-11-24T00:49:25.947Z,7.26
2022-11-24T00:51:52.420Z,7.34
2022-11-24T00:54:18.789Z,7.32
2022-11-24T00:56:45.881Z,7.36
2022-11-24T00:59:12.281Z,7.44
2022-11-24T01:01:38.755Z,7.51
2022-11-24T01:04:05.397Z,7.53
2022-11-24T01:06:32.108Z,7.51
2022-11-24T01:08:58.807Z,7.56
2022-11-24T01:11:34.385Z,7.57
2022-11-24T01:14:00.789Z,7.51
2022-11-24T01:16:33.111Z,7.50
2022-11-24T01:19:00.061Z,7.55
2022-11-24T01:21:26.880Z,7.50
2022-11-24T01:23:53.305Z,7.43
2022-11-24T01:26:22.303Z,7.52
2022-11-24T01:28:53.748Z,7.46
2022-11-24T01:31:20.217Z,7.45
2022-11-24T01:33:46.738Z,7.46
2022-11-24T01:36:13.187Z,7.46
2022-11-24T01:38:39.645Z,7.50
2022-11-24T01:41:15.043Z,7.50
2022-11-24T01:43:43.134Z,7.44
2022-11-24T01:46:33.947Z,7.50
2022-11-24T01:49:20.575Z,7.35
2022-11-24T01:52:05.835Z,7.38
2022-11-24T01:54:38.705Z,7.43
2022-11-24T01:57:13.005Z,7.41
2022-11-24T01:59:39.564Z,7.39
2022-11-24T02:02:06.594Z,7.40
2022-11-24T02:04:35.408Z,7.40
2022-11-24T02:07:04.578Z,7.32
2022-11-24T02:09:46.695Z,7.36
2022-11-24T02:12:13.113Z,7.30
2022-11-24T02:14:41.990Z,7.30
2022-11-24T02:17:08.814Z,7.25
2022-11-24T02:19:41.000Z,7.35
2022-11-24T02:22:15.265Z,7.32
2022-11-24T02:24:50.000Z,7.34
2022-11-24T02:27:16.699Z,7.37
2022-11-24T02:29:43.337Z,7.26
2022-11-24T02:32:11.339Z,7.35
2022-11-24T02:34:38.284Z,7.43
2022-11-24T02:37:04.719Z,7.38
2022-11-24T02:39:31.204Z,7.44
2022-11-24T02:42:03.609Z,7.41
2022-11-24T02:44:36.118Z,7.39
2022-11-24T02:47:08.835Z,7.39
2022-11-24T02:49:36.220Z,7.46
2022-11-24T02:52:03.065Z,7.51
2022-11-24T02:54:29.528Z,7.46
2022-11-24T02:56:56.265Z,7.56
2022-11-24T02:59:22.794Z,7.56
2022-11-24T03:01:49.764Z,7.63
2022-11-24T03:04:16.457Z,7.59
2022-11-24T03:06:42.924Z,7.59
2022-11-24T03:09:09.922Z,7.63
2022-11-24T03:11:36.926Z,7.60
2022-11-24T03:14:04.484Z,7.60
2022-11-24T03:16:31.539Z,7.62
2022-11-24T03:18:58.045Z,7.58
2022-11-24T03:21:24.588Z,7.58
2022-11-24T03:23:53.096Z,7.60
2022-11-24T03:26:21.550Z,7.63
2022-11-24T03:28:48.181Z,7.62
2022-11-24T03:31:14.799Z,7.59
2022-11-24T03:33:41.387Z,7.53
2022-11-24T03:36:08.635Z,7.53
2022-11-24T03:38:35.073Z,7.50
2022-11-24T03:41:01.598Z,7.47
2022-11-24T03:43:28.146Z,7.44
2022-11-24T03:45:54.730Z,7.37
2022-11-24T03:48:21.252Z,7.34
2022-11-24T03:50:56.186Z,7.34
2022-11-24T03:53:24.261Z,7.28
2022-11-24T03:55:50.713Z,7.30
2022-11-24T03:58:17.350Z,7.26
2022-11-24T04:00:43.859Z,7.27
2022-11-24T04:03:10.473Z,7.23
2022-11-24T04:05:37.528Z,7.34
2022-11-24T04:08:05.271Z,7.29
2022-11-24T04:10:33.341Z,7.34
2022-11-24T04:12:59.875Z,7.45
2022-11-24T04:15:26.314Z,7.41
2022-11-24T04:17:55.237Z,7.49
2022-11-24T04:20:22.348Z,7.57
2022-11-24T04:22:50.706Z,7.64
2022-11-24T04:25:17.518Z,7.61
2022-11-24T04:27:44.586Z,7.59
2022-11-24T04:30:11.216Z,7.60
2022-11-24T04:32:37.613Z,7.59
2022-11-24T04:35:04.671Z,7.60
2022-11-24T04:37:31.039Z,7.63
2022-11-24T04:39:57.516Z,7.60
2022-11-24T04:42:23.945Z,7.60
2022-11-24T04:44:50.383Z,7.66
2022-11-24T04:47:25.574Z,7.61
2022-11-24T04:49:53.132Z,7.57
2022-11-24T04:52:21.626Z,7.62
2022-11-24T04:54:49.488Z,7.53
2022-11-24T04:57:21.498Z,7.57
2022-11-24T04:59:49.328Z,7.57
2022-11-24T05:02:15.855Z,7.59
2022-11-24T05:04:42.526Z,7.55
2022-11-24T05:07:17.693Z,7.48
2022-11-24T05:09:58.880Z,7.39
2022-11-24T05:12:27.149Z,7.41
2022-11-24T05:14:53.562Z,7.37
2022-11-24T05:17:19.963Z,7.28
2022-11-24T05:19:46.434Z,7.24
2022-11-24T05:22:12.857Z,7.22
2022-11-24T05:24:39.284Z,7.11
2022-11-24T05:27:05.839Z,7.14
2022-11-24T05:29:32.241Z,7.10
2022-11-24T05:31:58.621Z,7.08
2022-11-24T05:34:25.059Z,7.10
2022-11-24T05:36:51.444Z,7.14
2022-11-24T05:39:17.826Z,7.10
2022-11-24T05:41:44.219Z,7.23
2022-11-24T05:44:10.825Z,7.25
2022-11-24T05:46:37.498Z,7.27
2022-11-24T05:49:04.097Z,7.33
2022-11-24T05:51:31.909Z,7.40
2022-11-24T05:53:58.379Z,7.44
2022-11-24T05:56:24.754Z,7.48
2022-11-24T05:58:51.222Z,7.57
2022-11-24T06:01:17.589Z,7.59
2022-11-24T06:03:43.954Z,7.58
2022-11-24T06:06:10.941Z,7.67
2022-11-24T06:08:37.609Z,7.61
2022-11-24T06:11:04.093Z,7.64
2022-11-24T06:13:30.529Z,7.62
2022-11-24T06:15:59.335Z,7.67
2022-11-24T06:18:25.812Z,7.68
2022-11-24T06:21:09.873Z,7.75
2022-11-24T06:23:39.243Z,7.71
2022-11-24T06:26:06.194Z,7.78
2022-11-24T06:28:32.637Z,7.77
2022-11-24T06:31:03.588Z,7.77
2022-11-24T06:33:34.381Z,7.79
2022-11-24T06:36:06.758Z,7.81
2022-11-24T06:38:35.736Z,7.75
2022-11-24T06:41:07.495Z,7.82
2022-11-24T06:43:35.278Z,7.75
2022-11-24T06:46:02.600Z,7.73
2022-11-24T06:48:29.381Z,7.75
2022-11-24T06:51:03.990Z,7.71
2022-11-24T06:53:34.896Z,7.70
2022-11-24T06:56:02.490Z,7.68
2022-11-24T06:58:28.933Z,7.65
2022-11-24T07:00:55.311Z,7.67
2022-11-24T07:03:21.873Z,7.69
2022-11-24T07:05:48.658Z,7.67
2022-11-24T07:08:17.908Z,7.63
2022-11-24T07:10:44.810Z,7.62
2022-11-24T07:13:11.221Z,7.61
2022-11-24T07:15:37.615Z,7.55
2022-11-24T07:18:04.477Z,7.60
2022-11-24T07:20:30.917Z,7.56
2022-11-24T07:22:58.037Z,7.57
2022-11-24T07:25:27.433Z,7.35
2022-11-24T07:28:00.541Z,7.50
2022-11-24T07:30:27.883Z,7.48
2022-11-24T07:33:02.218Z,7.54
2022-11-24T07:35:29.586Z,7.47
2022-11-24T07:37:57.530Z,7.52
2022-11-24T07:40:25.540Z,7.52
2022-11-24T07:42:51.914Z,7.47
2022-11-24T07:45:18.377Z,7.48
2022-11-24T07:47:44.747Z,7.45
2022-11-24T07:50:11.543Z,7.45
2022-11-24T07:52:38.121Z,7.43
2022-11-24T07:55:05.640Z,7.53
2022-11-24T07:57:31.965Z,7.53
2022-11-24T07:59:58.323Z,7.48
2022-11-24T08:02:24.696Z,7.52
2022-11-24T08:04:51.073Z,7.49
2022-11-24T08:07:17.502Z,7.57
2022-11-24T08:09:43.914Z,7.71
2022-11-24T08:12:10.325Z,7.74
2022-11-24T08:14:36.911Z,7.85
2022-11-24T08:17:03.430Z,7.75
2022-11-24T08:19:29.942Z,7.90
2022-11-24T08:21:56.308Z,7.90
2022-11-24T08:24:22.765Z,7.92
2022-11-24T08:26:49.126Z,7.86
2022-11-24T08:29:15.451Z,7.84
2022-11-24T08:31:41.887Z,7.81
2022-11-24T08:34:08.273Z,7.91
2022-11-24T08:36:34.601Z,7.91
2022-11-24T08:39:01.659Z,7.86
2022-11-24T08:41:29.188Z,7.79
2022-11-24T08:43:55.673Z,7.76
2022-11-24T08:46:22.756Z,7.82
2022-11-24T08:48:50.958Z,7.82
2022-11-24T08:51:20.177Z,7.84
2022-11-24T08:53:46.799Z,7.79
2022-11-24T08:56:13.837Z,7.84
2022-11-24T08:58:40.973Z,7.90
2022-11-24T09:01:15.442Z,8.03
2022-11-24T09:03:48.481Z,8.14
2022-11-24T09:06:18.063Z,8.25
2022-11-24T09:08:44.368Z,8.33
2022-11-24T09:11:13.449Z,8.33
2022-11-24T09:13:40.179Z,8.41
2022-11-24T09:16:10.075Z,8.46
2022-11-24T09:18:36.676Z,8.51
2022-11-24T09:21:14.571Z,8.52
2022-11-24T09:23:41.564Z,8.61
2022-11-24T09:26:16.074Z,8.57
2022-11-24T09:28:43.062Z,8.69
2022-11-24T09:31:12.428Z,8.74
2022-11-24T09:33:39.843Z,8.91
2022-11-24T09:36:06.897Z,9.06
2022-11-24T09:38:33.479Z,9.13
2022-11-24T09:41:21.027Z,9.37
2022-11-24T09:44:08.692Z,9.53
2022-11-24T09:46:56.485Z,9.67
2022-11-24T09:49:38.851Z,9.78
2022-11-24T09:52:12.011Z,9.81
2022-11-24T09:54:53.964Z,9.89
2022-11-24T09:57:25.533Z,9.97
2022-11-24T09:59:52.068Z,9.95
2022-11-24T10:02:18.455Z,9.97
2022-11-24T10:04:47.004Z,10.08
2022-11-24T10:07:27.066Z,10.10
2022-11-24T10:10:03.729Z,10.15
2022-11-24T10:12:46.912Z,10.32
2022-11-24T10:15:19.185Z,10.48
2022-11-24T10:17:59.422Z,10.58
2022-11-24T10:20:48.706Z,10.68
2022-11-24T10:23:39.711Z,10.80
2022-11-24T10:26:32.873Z,10.84
2022-11-24T10:28:59.221Z,10.95
2022-11-24T10:31:35.909Z,11.08
2022-11-24T10:34:17.703Z,11.17
2022-11-24T10:37:08.768Z,11.16
2022-11-24T10:40:03.524Z,11.30
2022-11-24T10:42:32.164Z,11.42
2022-11-24T10:45:01.038Z,11.41
2022-11-24T10:47:28.199Z,11.52
2022-11-24T10:49:57.774Z,11.62
2022-11-24T10:52:25.058Z,11.73
2022-11-24T10:54:59.716Z,11.82
2022-11-24T10:57:33.690Z,11.87
2022-11-24T11:00:01.768Z,11.83
2022-11-24T11:02:32.054Z,11.79
2022-11-24T11:04:58.689Z,11.69
2022-11-24T11:07:26.390Z,11.62
2022-11-24T11:10:22.777Z,11.64
2022-11-24T11:12:49.275Z,11.53
2022-11-24T11:15:31.226Z,11.70
2022-11-24T11:18:01.276Z,11.68
2022-11-24T11:20:31.181Z,11.74
2022-11-24T11:23:00.363Z,11.76
2022-11-24T11:25:32.795Z,11.77
2022-11-24T11:28:23.535Z,11.75
2022-11-24T11:31:18.418Z,11.85
2022-11-24T11:34:13.941Z,11.88
2022-11-24T11:36:50.641Z,11.89
2022-11-24T11:39:48.249Z,11.96
2022-11-24T11:42:53.858Z,11.88
2022-11-24T11:45:19.800Z,11.97
2022-11-24T11:48:01.201Z,11.85
2022-11-24T11:51:06.525Z,11.83
2022-11-24T11:53:31.111Z,11.77
2022-11-24T11:56:11.273Z,11.78
2022-11-24T11:59:00.378Z,11.75
2022-11-24T12:01:40.073Z,11.69
2022-11-24T12:04:39.239Z,11.72
2022-11-24T12:07:37.217Z,11.66
2022-11-24T12:10:15.435Z,11.69
2022-11-24T12:13:07.463Z,11.64
2022-11-24T12:15:42.879Z,11.55
2022-11-24T12:18:55.985Z,11.50
2022-11-24T12:21:26.656Z,11.40
2022-11-24T12:24:11.042Z,11.26
2022-11-24T12:26:49.129Z,11.29
2022-11-24T12:29:18.268Z,11.37
2022-11-24T12:32:21.925Z,11.37
2022-11-24T12:34:59.019Z,11.36
2022-11-24T12:37:40.747Z,11.35
2022-11-24T12:40:34.908Z,11.35
2022-11-24T12:43:22.462Z,11.30
2022-11-24T12:46:02.135Z,11.26
2022-11-24T12:48:34.597Z,11.31
2022-11-24T12:51:03.152Z,11.26
2022-11-24T12:53:33.476Z,11.20
2022-11-24T12:56:07.288Z,11.14
2022-11-24T12:58:42.012Z,11.15
2022-11-24T13:01:44.647Z,11.12
2022-11-24T13:04:17.250Z,11.04
2022-11-24T13:06:53.239Z,10.98
2022-11-24T13:09:20.078Z,10.90
2022-11-24T13:11:49.081Z,10.97
2022-11-24T13:14:31.478Z,10.92
2022-11-24T13:19:46.916Z,10.76
2022-11-24T13:22:18.256Z,10.72
2022-11-24T13:24:45.170Z,10.76
2022-11-24T13:27:14.243Z,10.84
2022-11-24T13:29:45.516Z,10.82
2022-11-24T13:32:11.837Z,10.82
2022-11-24T13:34:41.263Z,10.83
2022-11-24T13:37:28.899Z,10.84
2022-11-24T13:40:11.196Z,10.81
2022-11-24T13:42:56.074Z,10.78
2022-11-24T13:45:41.229Z,10.73
2022-11-24T13:48:20.458Z,10.72
2022-11-24T13:50:50.208Z,10.67
2022-11-24T13:53:38.474Z,10.52
2022-11-24T13:56:13.596Z,10.56
2022-11-24T13:58:42.889Z,10.54
2022-11-24T14:01:19.359Z,10.54
2022-11-24T14:04:32.864Z,10.62
2022-11-24T14:07:08.242Z,10.66
2022-11-24T14:09:43.729Z,10.51
2022-11-24T14:12:23.507Z,10.62
2022-11-24T14:14:52.299Z,10.54
2022-11-24T14:17:23.233Z,10.58
2022-11-24T14:19:55.441Z,10.62
2022-11-24T14:22:36.553Z,10.58
2022-11-24T14:25:03.833Z,10.57
2022-11-24T14:27:36.929Z,10.50
2022-11-24T14:30:09.454Z,10.52
2022-11-24T14:32:36.393Z,10.41
2022-11-24T14:35:20.497Z,10.41
2022-11-24T14:37:46.984Z,10.35
2022-11-24T14:40:38.918Z,10.34
2022-11-24T14:43:19.195Z,10.25
2022-11-24T14:45:55.557Z,10.18
2022-11-24T14:48:28.394Z,10.09
2022-11-24T14:51:05.988Z,9.91
2022-11-24T14:53:33.126Z,9.79
2022-11-24T14:56:30.324Z,9.64
2022-11-24T14:58:58.062Z,9.56
2022-11-24T15:01:27.276Z,9.47
2022-11-24T15:07:25.197Z,9.16
2022-11-24T15:09:52.476Z,9.10
2022-11-24T15:12:32.646Z,8.96
2022-11-24T15:15:15.432Z,8.82
2022-11-24T15:17:49.715Z,8.74
2022-11-24T15:20:24.744Z,8.59
2022-11-24T15:22:51.138Z,8.44
2022-11-24T15:25:33.961Z,8.46
2022-11-24T15:28:00.845Z,8.39
2022-11-24T15:30:27.732Z,8.23
2022-11-24T15:32:56.469Z,8.22
2022-11-24T15:35:25.341Z,8.13
2022-11-24T15:37:51.891Z,8.01
2022-11-24T15:40:19.232Z,7.96
2022-11-24T15:42:56.292Z,7.95
2022-11-24T15:45:25.854Z,7.91
2022-11-24T15:47:52.478Z,7.82
2022-11-24T15:50:19.591Z,7.78
2022-11-24T15:52:47.202Z,7.64
2022-11-24T15:55:21.698Z,7.54
2022-11-24T15:57:48.478Z,7.51
2022-11-24T16:00:20.446Z,7.46
2022-11-24T16:02:47.056Z,7.34
2022-11-24T16:05:14.636Z,7.29
2022-11-24T16:07:41.489Z,7.24
2022-11-24T16:10:21.622Z,7.08
2022-11-24T16:12:47.946Z,7.11
2022-11-24T16:15:14.334Z,6.98
2022-11-24T16:17:40.709Z,7.01
2022-11-24T16:20:07.512Z,6.93
2022-11-24T16:22:33.846Z,6.91
2022-11-24T16:25:00.189Z,6.87
2022-11-24T16:27:26.563Z,6.84
2022-11-24T16:29:52.866Z,6.88
2022-11-24T16:32:19.188Z,6.92
2022-11-24T16:34:45.536Z,6.87
2022-11-24T16:37:11.891Z,6.78
2022-11-24T16:39:38.257Z,6.86
2022-11-24T16:42:04.788Z,6.85
2022-11-24T16:44:31.249Z,6.83
2022-11-24T16:46:57.626Z,6.83
2022-11-24T16:49:23.994Z,6.81
2022-11-24T16:51:50.335Z,6.80
2022-11-24T16:54:16.686Z,6.76
2022-11-24T16:56:43.179Z,6.70
2022-11-24T16:59:09.643Z,6.74
2022-11-24T17:01:36.042Z,6.77
2022-11-24T17:04:02.515Z,6.66
2022-11-24T17:06:29.030Z,6.71
2022-11-24T17:08:55.779Z,6.72
2022-11-24T17:11:24.639Z,6.71
2022-11-24T17:13:51.732Z,6.63
2022-11-24T17:16:21.637Z,6.63
2022-11-24T17:18:48.677Z,6.63
2022-11-24T17:21:17.897Z,6.67
2022-11-24T17:23:44.757Z,6.56
2022-11-24T17:26:16.392Z,6.57
2022-11-24T17:28:43.376Z,6.57
2022-11-24T17:31:31.093Z,6.63
2022-11-24T17:33:59.141Z,6.61
2022-11-24T17:36:26.713Z,6.56
2022-11-24T17:38:53.400Z,6.60
2022-11-24T17:41:21.167Z,6.67
2022-11-24T17:43:55.149Z,6.70
2022-11-24T17:46:21.563Z,6.74
2022-11-24T17:48:48.030Z,6.67
2022-11-24T17:51:16.782Z,6.70
2022-11-24T17:53:45.104Z,6.56
2022-11-24T17:56:13.871Z,6.58
2022-11-24T17:58:43.123Z,6.56
2022-11-24T18:01:10.979Z,6.57
2022-11-24T18:03:39.191Z,6.49
2022-11-24T18:06:11.111Z,6.49
2022-11-24T18:08:39.592Z,6.43
2022-11-24T18:11:12.528Z,6.39
2022-11-24T18:16:26.130Z,6.50
2022-11-24T18:19:07.260Z,6.49
2022-11-24T18:21:34.558Z,6.45
2022-11-24T18:24:00.919Z,6.48
2022-11-24T18:26:27.306Z,6.44
2022-11-24T18:28:53.669Z,6.51
2022-11-24T18:31:20.033Z,6.52
2022-11-24T18:33:46.446Z,6.56
2022-11-24T18:36:16.707Z,6.63
2022-11-24T18:38:43.495Z,6.63
2022-11-24T18:41:12.083Z,6.55
2022-11-24T18:43:38.421Z,6.69
2022-11-24T18:46:11.297Z,6.67
2022-11-24T18:48:37.787Z,6.68
2022-11-24T18:51:04.713Z,6.66
2022-11-24T18:53:31.359Z,6.66
2022-11-24T18:56:03.287Z,6.70
2022-11-24T18:58:31.605Z,6.77
2022-11-24T19:01:14.815Z,6.88
2022-11-24T19:03:49.073Z,6.78
2022-11-24T19:06:24.664Z,6.86
2022-11-24T19:08:53.988Z,6.80
2022-11-24T19:11:23.108Z,6.83
2022-11-24T19:13:51.004Z,6.86
2022-11-24T19:16:19.661Z,6.88
2022-11-24T19:18:52.005Z,6.85
2022-11-24T19:21:20.350Z,6.91
2022-11-24T19:23:46.747Z,6.83
2022-11-24T19:26:13.064Z,6.89
2022-11-24T19:28:39.414Z,6.85
2022-11-24T19:31:08.550Z,6.75
2022-11-24T19:33:35.246Z,6.76
2022-11-24T19:36:08.145Z,6.86
2022-11-24T19:38:35.340Z,6.78
2022-11-24T19:41:07.436Z,6.77
2022-11-24T19:43:34.387Z,6.74
2022-11-24T19:46:02.289Z,6.67
2022-11-24T19:48:36.714Z,6.78
2022-11-24T19:51:05.969Z,6.72
2022-11-24T19:53:35.237Z,6.75
2022-11-24T19:56:04.790Z,6.76
2022-11-24T19:58:31.734Z,6.70
2022-11-24T20:01:09.087Z,6.66
2022-11-24T20:03:36.306Z,6.69
2022-11-24T20:06:03.918Z,6.69
2022-11-24T20:08:35.139Z,6.64
2022-11-24T20:11:09.985Z,6.66
2022-11-24T20:13:37.815Z,6.69
2022-11-24T20:16:04.887Z,6.65
2022-11-24T20:18:33.083Z,6.63
2022-11-24T20:21:08.636Z,6.60
2022-11-24T20:23:35.565Z,6.61
2022-11-24T20:26:04.171Z,6.51
2022-11-24T20:28:31.084Z,6.48
2022-11-24T20:31:01.495Z,6.54
2022-11-24T20:33:27.840Z,6.58
2022-11-24T20:35:54.228Z,6.53
2022-11-24T20:38:20.590Z,6.54
2022-11-24T20:40:46.937Z,6.53
2022-11-24T20:43:13.299Z,6.50
2022-11-24T20:45:39.708Z,6.56
2022-11-24T20:48:06.102Z,6.54
2022-11-24T20:50:35.485Z,6.58
2022-11-24T20:53:01.836Z,6.48
2022-11-24T20:55:28.156Z,6.51
2022-11-24T20:57:54.551Z,6.46
2022-11-24T21:00:21.005Z,6.39
2022-11-24T21:02:47.362Z,6.36
2022-11-24T21:05:13.835Z,6.49
2022-11-24T21:07:40.336Z,6.37
2022-11-24T21:10:07.323Z,6.42
2022-11-24T21:12:33.668Z,6.34
2022-11-24T21:15:00.012Z,6.35
2022-11-24T21:17:26.328Z,6.43
2022-11-24T21:19:55.739Z,6.48
2022-11-24T21:22:24.582Z,6.43
2022-11-24T21:24:50.901Z,6.50
2022-11-24T21:27:17.175Z,6.54
2022-11-24T21:29:43.542Z,6.55
2022-11-24T21:32:09.939Z,6.64
2022-11-24T21:34:36.594Z,6.67
2022-11-24T21:37:03.205Z,6.63
2022-11-24T21:39:29.624Z,6.69
2022-11-24T21:41:55.990Z,6.75
2022-11-24T21:44:22.304Z,6.89
2022-11-24T21:46:54.421Z,6.85
2022-11-24T21:49:22.231Z,6.89
2022-11-24T21:51:48.526Z,6.90
2022-11-24T21:54:14.852Z,6.94
2022-11-24T21:56:41.231Z,6.88
2022-11-24T21:59:07.516Z,7.02
2022-11-24T22:01:34.154Z,6.96
2022-11-24T22:04:00.627Z,7.03
2022-11-24T22:06:26.998Z,7.04
2022-11-24T22:08:55.057Z,7.00
2022-11-24T22:11:23.445Z,7.11
2022-11-24T22:13:50.855Z,7.14
2022-11-24T22:16:20.648Z,7.17
2022-11-24T22:18:47.513Z,7.10
2022-11-24T22:21:19.366Z,7.21
2022-11-24T22:23:45.752Z,7.21
2022-11-24T22:26:17.961Z,7.31
2022-11-24T22:28:45.067Z,7.32
2022-11-24T22:31:25.721Z,7.32
2022-11-24T22:33:54.098Z,7.27
2022-11-24T22:36:21.751Z,7.27
2022-11-24T22:38:53.269Z,7.41
2022-11-24T22:41:19.664Z,7.43
2022-11-24T22:43:46.682Z,7.44
2022-11-24T22:46:20.298Z,7.43
2022-11-24T22:48:48.083Z,7.39
2022-11-24T22:51:16.953Z,7.34
2022-11-24T22:53:51.951Z,7.41
2022-11-24T22:56:19.629Z,7.45
2022-11-24T22:58:46.444Z,7.35
2022-11-24T23:01:18.505Z,7.39
2022-11-24T23:03:45.497Z,7.45
2022-11-24T23:06:15.023Z,7.55
2022-11-24T23:08:42.258Z,7.53
2022-11-24T23:11:15.316Z,7.56
2022-11-24T23:13:42.274Z,7.65
2022-11-24T23:16:13.369Z,7.56
2022-11-24T23:18:40.747Z,7.52
2022-11-24T23:21:19.358Z,7.61
2022-11-24T23:23:47.150Z,7.64
2022-11-24T23:26:16.594Z,7.69
2022-11-24T23:28:43.001Z,7.62
2022-11-24T23:31:15.389Z,7.59
2022-11-24T23:33:41.916Z,7.58
2022-11-24T23:36:11.173Z,7.72
2022-11-24T23:38:38.061Z,7.61
2022-11-24T23:41:07.212Z,7.68
2022-11-24T23:43:34.931Z,7.73
2022-11-24T23:46:03.091Z,7.72
2022-11-24T23:48:29.583Z,7.71
2022-11-24T23:50:55.934Z,7.73
2022-11-24T23:53:22.664Z,7.64
2022-11-24T23:55:55.285Z,7.63
2022-11-24T23:58:22.925Z,7.69
